Terminal Aerodrome Forecast
Issued by NWS Albany, NY

Home | Current Version | Previous Version | Text Only | Print | Product List | Glossary On
Versions: 1 2 3 4 5 6 7 8 9 10 11 12 13 14 15 16 17 18 19 20 21 22 23 24 25 26 27
000
FTUS41 KALY 011451 AAA
TAFALB
TAF AMD
KALB 011451Z 0115/0212 18010KT P6SM VCSH BKN035 BKN060 OVC130
      TEMPO 0115/0117 BKN008 BKN035 BKN060
     FM011700 19010G15KT P6SM VCSH BKN050
     FM012200 26012G17KT P6SM BKN060
     FM020100 25007KT P6SM SCT025 BKN035=

USA.gov is the U.S. government's official web portal to all federal, state and local government web resources and services.